Have a Safe July 4th! 

Flight Track Log - Related Links

Times and Time Zones

All times are in EDT time to prevent confusion due to time zone crossing. See the USC105 flight status page for this flight to view local times or setup timezone preferences in your user account.

Time Position Orientation Groundspeed Altitude Reporting Facility
EDT Latitude Longitude Course Direction KTS MPH feet Rate Location/Type
Fri 07:09:40 AM 42.2431 -83.6153 273° West 130 150 3,200  Level Cleveland Center
Fri 07:10:41 AM 42.2133 -83.6364 208° Southwest 136 157 4,200 885 Climbing Cleveland Center
Fri 07:11:42 AM 42.1814 -83.6600 209° Southwest 135 155 5,000 436 Climbing Cleveland Center
Fri 07:12:31 AM 42.1472 -83.6892 212° Southwest 171 197 5,000  Level Cleveland Center
Fri 07:13:31 AM 42.1069 -83.7181 208° Southwest 165 190 5,000  Level Cleveland Center
Fri 07:14:38 AM 42.0619 -83.7550 211° Southwest 164 189 5,000  Level Cleveland Center
Fri 07:15:39 AM 42.0194 -83.7864 209° Southwest 177 204 5,000  Level Cleveland Center
Fri 07:16:46 AM 41.9728 -83.8175 206° Southwest 179 206 5,000  Level Cleveland Center
Fri 07:17:41 AM 41.9322 -83.8489 210° Southwest 181 208 5,000 197 Level Cleveland Center
Fri 07:19:00 AM 41.8812 -83.8092 150° Southeast  Level FlightAware Approximate
Fri 07:22:51 AM 41.6836 -83.7300 163° South 178 205 6,200  Level Indianapolis Center
Fri 07:23:52 AM 41.6375 -83.7106 163° South 177 204 7,000 393 Climbing Indianapolis Center
Fri 07:24:53 AM 41.5928 -83.6906 162° South 173 199 7,000  Level Indianapolis Center
Fri 07:25:55 AM 41.5447 -83.6697 162° South 175 201 7,000  Level Indianapolis Center
Fri 07:26:00 AM 41.5832 -83.6785 160° South  Level Estimated
Fri 07:26:56 AM 41.4964 -83.6494 163° South 180 207 7,000  Level Indianapolis Center
Fri 07:27:00 AM 41.5403 -83.6615 163° South  Level FlightAware Approximate
Fri 07:27:57 AM 41.4497 -83.6286 161° South 177 204 7,000  Level Indianapolis Center
Fri 07:28:00 AM 41.4973 -83.6445 163° South  Level FlightAware Approximate
Fri 07:28:58 AM 41.4028 -83.6083 162° South 176 203 7,000  Level Indianapolis Center
Fri 07:29:59 AM 41.3558 -83.5872 161° South 178 205 7,000  Level Indianapolis Center
Fri 07:31:00 AM 41.3097 -83.5672 162° South 176 203 7,000  Level Indianapolis Center
Fri 07:32:02 AM 41.2633 -83.5469 162° South 175 201 7,000  Level Indianapolis Center
Fri 07:33:03 AM 41.2158 -83.5242 160° South 177 204 7,000  Level Indianapolis Center
Fri 07:34:04 AM 41.1686 -83.5053 163° South 176 203 7,000  Level Indianapolis Center
Fri 07:35:05 AM 41.1219 -83.4839 161° South 177 204 7,000  Level Indianapolis Center
Fri 07:36:07 AM 41.0750 -83.4642 162° South 176 203 7,000  Level Indianapolis Center
Fri 07:37:08 AM 41.0281 -83.4439 162° South 176 203 7,000  Level Indianapolis Center
Fri 07:38:09 AM 40.9733 -83.4197 162° South 176 203 7,000  Level Indianapolis Center
Fri 07:39:10 AM 40.9269 -83.4000 162° South 174 200 7,000  Level Indianapolis Center
Fri 07:40:12 AM 40.8806 -83.3792 161° South 174 200 7,000  Level Indianapolis Center
Fri 07:41:13 AM 40.8333 -83.3603 163° South 175 201 7,000  Level Indianapolis Center
Fri 07:42:14 AM 40.7858 -83.3386 161° South 178 205 7,000  Level Indianapolis Center
Fri 07:43:16 AM 40.7381 -83.3192 163° South 173 199 7,000  Level Indianapolis Center
Fri 07:44:17 AM 40.6908 -83.2983 162° South 176 203 7,000  Level Indianapolis Center
Fri 07:45:19 AM 40.6450 -83.2786 162° South 174 200 7,000  Level Indianapolis Center
Fri 07:46:20 AM 40.5989 -83.2594 162° South 172 198 7,000  Level Indianapolis Center
Fri 07:47:22 AM 40.5528 -83.2386 161° South 173 199 7,000 49 Level Indianapolis Center
Fri 07:48:23 AM 40.5106 -83.2064 150° Southeast 182 209 7,100  Climbing Indianapolis Center
Fri 07:49:25 AM 40.4778 -83.1511 128° Southeast 190 219 7,000 -49 Descending Indianapolis Center
Fri 07:50:26 AM 40.4433 -83.0961 129° Southeast 192 221 7,000  Level Indianapolis Center
Fri 07:51:28 AM 40.4097 -83.0411 129° Southeast 191 220 7,000  Level Indianapolis Center
Fri 07:52:29 AM 40.3747 -82.9881 131° Southeast 191 220 7,000  Level Indianapolis Center
Fri 07:53:31 AM 40.3397 -82.9356 131° Southeast 190 219 7,000  Level Indianapolis Center
Fri 07:54:39 AM 40.2981 -82.8731 131° Southeast 182 209 7,000 -146 Level Indianapolis Center
Fri 07:55:34 AM 40.2672 -82.8300 133° Southeast 177 204 6,700 -658 Descending Indianapolis Center
Fri 07:55:52 AM 40.2511 -82.8239 164° South 176 203 6,200 -1,574 Descending Indianapolis Center
Fri 07:56:35 AM 40.2175 -82.8108 163° South 184 212 5,100 -1,574 Descending Indianapolis Center
Fri 07:56:53 AM 40.2019 -82.8075 171° South 193 222 4,600 -1,452 Descending Indianapolis Center
Fri 07:57:37 AM 40.1647 -82.7981 169° South 189 217 3,600 -1,200 Descending Indianapolis Center
Fri 07:57:53 AM 40.1483 -82.7958 174° South 195 224 3,400 -492 Descending Indianapolis Center
Fri 07:58:38 AM 40.1133 -82.7869 169° South 188 216 3,100 -358 Descending Indianapolis Center
Fri 07:59:00 AM 40.0967 -82.7847 174° South 169 194 3,000 -97 Descending Indianapolis Center
Fri 07:59:40 AM 40.0681 -82.7756 166° South 178 205 3,000  Level Indianapolis Center
Fri 08:00:07 AM 40.0475 -82.7683 165° South 148 170 3,000  Level Indianapolis Center
Fri 08:00:41 AM 40.0281 -82.7597 161° South 162 186 3,000  Level Indianapolis Center
Fri 08:01:13 AM 40.0047 -82.7525 167° South 153 176 3,000 97 Level Indianapolis Center
Fri 08:01:43 AM 39.9858 -82.7461 165° South 156 180 3,100 -98 Climbing Indianapolis Center
Fri 08:02:14 AM 39.9614 -82.7422 173° South 153 176 2,900 -295 Descending Indianapolis Center
Fri 08:02:44 AM 39.9497 -82.7586 227° Southwest 160 184 2,800 -326 Descending Indianapolis Center
Fri 08:03:46 AM 39.9167 -82.7892 215° Southwest 151 174 2,400 -195 Descending Indianapolis Center
Fri 08:04:47 AM 39.8894 -82.8239 224° Southwest 143 165 2,400 -98 Level Indianapolis Center
Fri 08:05:49 AM 39.8667 -82.8558 227° Southwest 132 152 2,200 -488 Descending Indianapolis Center
Fri 08:06:50 AM 39.8469 -82.8861 230° Southwest 119 137 1,400 -585 Descending Indianapolis Center
Fri 08:07:52 AM 39.8275 -82.9128 226° Southwest 113 130 1,000 -387 Descending Indianapolis Center

Login

Don't have an account? Register now (free) for customized features, flight alerts, and more!